sensor_id;sensor_type;location;lat;lon;timestamp;P1;durP1;ratioP1;P2;durP2;ratioP2
12118;SDS011;6123;48.864;9.200;2022-07-22T00:00:16;10.40;;;9.35;;
12118;SDS011;6123;48.864;9.200;2022-07-22T00:02:44;9.55;;;8.75;;
12118;SDS011;6123;48.864;9.200;2022-07-22T00:05:09;9.68;;;8.93;;
12118;SDS011;6123;48.864;9.200;2022-07-22T00:07:36;10.48;;;9.57;;
12118;SDS011;6123;48.864;9.200;2022-07-22T00:10:03;9.38;;;8.57;;
12118;SDS011;6123;48.864;9.200;2022-07-22T00:12:30;10.23;;;9.43;;
12118;SDS011;6123;48.864;9.200;2022-07-22T00:14:56;9.43;;;8.63;;
12118;SDS011;6123;48.864;9.200;2022-07-22T00:17:22;8.98;;;8.23;;
12118;SDS011;6123;48.864;9.200;2022-07-22T00:19:49;9.02;;;8.30;;
12118;SDS011;6123;48.864;9.200;2022-07-22T00:22:15;9.50;;;8.70;;
12118;SDS011;6123;48.864;9.200;2022-07-22T00:24:43;9.85;;;8.95;;
12118;SDS011;6123;48.864;9.200;2022-07-22T00:27:09;10.88;;;9.88;;
12118;SDS011;6123;48.864;9.200;2022-07-22T00:29:34;10.38;;;9.38;;
12118;SDS011;6123;48.864;9.200;2022-07-22T00:32:00;9.93;;;9.07;;
12118;SDS011;6123;48.864;9.200;2022-07-22T00:34:26;9.48;;;8.57;;
12118;SDS011;6123;48.864;9.200;2022-07-22T00:36:51;9.95;;;9.15;;
12118;SDS011;6123;48.864;9.200;2022-07-22T00:39:19;9.73;;;9.00;;
12118;SDS011;6123;48.864;9.200;2022-07-22T00:41:47;10.35;;;9.35;;
12118;SDS011;6123;48.864;9.200;2022-07-22T00:44:15;9.90;;;9.02;;
12118;SDS011;6123;48.864;9.200;2022-07-22T00:46:41;10.63;;;9.73;;
12118;SDS011;6123;48.864;9.200;2022-07-22T00:49:08;10.23;;;9.32;;
12118;SDS011;6123;48.864;9.200;2022-07-22T00:51:37;9.43;;;8.55;;
12118;SDS011;6123;48.864;9.200;2022-07-22T00:54:07;10.05;;;9.20;;
12118;SDS011;6123;48.864;9.200;2022-07-22T00:56:34;9.98;;;9.07;;
12118;SDS011;6123;48.864;9.200;2022-07-22T00:59:02;10.73;;;9.25;;
12118;SDS011;6123;48.864;9.200;2022-07-22T01:01:30;8.20;;;7.55;;
12118;SDS011;6123;48.864;9.200;2022-07-22T01:03:55;8.52;;;7.82;;
12118;SDS011;6123;48.864;9.200;2022-07-22T01:06:21;7.72;;;7.13;;
12118;SDS011;6123;48.864;9.200;2022-07-22T01:08:47;9.07;;;8.18;;
12118;SDS011;6123;48.864;9.200;2022-07-22T01:11:14;9.52;;;8.68;;
12118;SDS011;6123;48.864;9.200;2022-07-22T01:13:41;8.73;;;7.93;;
12118;SDS011;6123;48.864;9.200;2022-07-22T01:16:08;8.95;;;8.35;;
12118;SDS011;6123;48.864;9.200;2022-07-22T01:18:40;9.90;;;8.90;;
12118;SDS011;6123;48.864;9.200;2022-07-22T01:21:08;8.02;;;7.43;;
12118;SDS011;6123;48.864;9.200;2022-07-22T01:23:34;9.40;;;8.52;;
12118;SDS011;6123;48.864;9.200;2022-07-22T01:26:01;9.15;;;8.15;;
12118;SDS011;6123;48.864;9.200;2022-07-22T01:28:28;9.25;;;8.18;;
12118;SDS011;6123;48.864;9.200;2022-07-22T01:30:53;9.23;;;8.60;;
12118;SDS011;6123;48.864;9.200;2022-07-22T01:33:20;9.60;;;8.80;;
12118;SDS011;6123;48.864;9.200;2022-07-22T01:35:46;9.40;;;8.60;;
12118;SDS011;6123;48.864;9.200;2022-07-22T01:38:12;8.68;;;8.07;;
12118;SDS011;6123;48.864;9.200;2022-07-22T01:40:39;9.40;;;8.50;;
12118;SDS011;6123;48.864;9.200;2022-07-22T01:43:06;9.10;;;8.40;;
12118;SDS011;6123;48.864;9.200;2022-07-22T01:45:32;8.43;;;7.72;;
12118;SDS011;6123;48.864;9.200;2022-07-22T01:47:58;9.13;;;8.32;;
12118;SDS011;6123;48.864;9.200;2022-07-22T01:50:27;9.15;;;8.45;;
12118;SDS011;6123;48.864;9.200;2022-07-22T01:52:52;9.70;;;8.90;;
12118;SDS011;6123;48.864;9.200;2022-07-22T01:55:21;8.93;;;8.32;;
12118;SDS011;6123;48.864;9.200;2022-07-22T01:57:46;9.68;;;8.98;;
12118;SDS011;6123;48.864;9.200;2022-07-22T02:00:12;10.85;;;8.95;;
12118;SDS011;6123;48.864;9.200;2022-07-22T02:02:38;10.20;;;9.25;;
12118;SDS011;6123;48.864;9.200;2022-07-22T02:05:04;9.40;;;8.60;;
12118;SDS011;6123;48.864;9.200;2022-07-22T02:07:30;9.70;;;8.80;;
12118;SDS011;6123;48.864;9.200;2022-07-22T02:09:56;9.40;;;8.60;;
12118;SDS011;6123;48.864;9.200;2022-07-22T02:12:22;8.77;;;8.07;;
12118;SDS011;6123;48.864;9.200;2022-07-22T02:14:48;9.50;;;8.63;;
12118;SDS011;6123;48.864;9.200;2022-07-22T02:17:14;8.95;;;8.15;;
12118;SDS011;6123;48.864;9.200;2022-07-22T02:19:40;9.38;;;8.57;;
12118;SDS011;6123;48.864;9.200;2022-07-22T02:22:06;9.32;;;8.63;;
12118;SDS011;6123;48.864;9.200;2022-07-22T02:24:34;9.88;;;9.07;;
12118;SDS011;6123;48.864;9.200;2022-07-22T02:27:00;10.20;;;9.20;;
12118;SDS011;6123;48.864;9.200;2022-07-22T02:29:28;9.85;;;9.05;;
12118;SDS011;6123;48.864;9.200;2022-07-22T02:31:54;8.65;;;7.95;;
12118;SDS011;6123;48.864;9.200;2022-07-22T02:34:23;9.07;;;8.48;;
12118;SDS011;6123;48.864;9.200;2022-07-22T02:36:49;9.48;;;8.68;;
12118;SDS011;6123;48.864;9.200;2022-07-22T02:39:14;9.63;;;8.73;;
12118;SDS011;6123;48.864;9.200;2022-07-22T02:41:40;10.27;;;9.27;;
12118;SDS011;6123;48.864;9.200;2022-07-22T02:44:08;10.30;;;9.50;;
12118;SDS011;6123;48.864;9.200;2022-07-22T02:46:33;10.30;;;9.48;;
12118;SDS011;6123;48.864;9.200;2022-07-22T02:49:02;10.65;;;9.77;;
12118;SDS011;6123;48.864;9.200;2022-07-22T02:51:29;10.80;;;9.85;;
12118;SDS011;6123;48.864;9.200;2022-07-22T02:53:55;12.23;;;11.13;;
12118;SDS011;6123;48.864;9.200;2022-07-22T02:56:21;11.70;;;10.63;;
12118;SDS011;6123;48.864;9.200;2022-07-22T02:58:46;12.63;;;11.57;;
12118;SDS011;6123;48.864;9.200;2022-07-22T03:01:12;13.20;;;12.18;;
12118;SDS011;6123;48.864;9.200;2022-07-22T03:03:38;12.73;;;11.52;;
12118;SDS011;6123;48.864;9.200;2022-07-22T03:06:04;12.95;;;11.85;;
12118;SDS011;6123;48.864;9.200;2022-07-22T03:08:30;13.00;;;11.90;;
12118;SDS011;6123;48.864;9.200;2022-07-22T03:10:56;13.32;;;12.13;;
12118;SDS011;6123;48.864;9.200;2022-07-22T03:13:23;12.32;;;11.35;;
12118;SDS011;6123;48.864;9.200;2022-07-22T03:15:49;12.13;;;11.02;;
12118;SDS011;6123;48.864;9.200;2022-07-22T03:18:17;13.63;;;12.50;;
12118;SDS011;6123;48.864;9.200;2022-07-22T03:20:43;11.10;;;10.02;;
12118;SDS011;6123;48.864;9.200;2022-07-22T03:23:09;12.57;;;11.48;;
12118;SDS011;6123;48.864;9.200;2022-07-22T03:25:34;12.65;;;11.45;;
12118;SDS011;6123;48.864;9.200;2022-07-22T03:28:00;12.90;;;11.80;;
12118;SDS011;6123;48.864;9.200;2022-07-22T03:30:25;13.32;;;12.10;;
12118;SDS011;6123;48.864;9.200;2022-07-22T03:32:51;14.25;;;13.10;;
12118;SDS011;6123;48.864;9.200;2022-07-22T03:35:19;14.88;;;13.20;;
12118;SDS011;6123;48.864;9.200;2022-07-22T03:37:47;14.05;;;12.82;;
12118;SDS011;6123;48.864;9.200;2022-07-22T03:40:13;14.25;;;13.15;;
12118;SDS011;6123;48.864;9.200;2022-07-22T03:42:38;12.90;;;11.90;;
12118;SDS011;6123;48.864;9.200;2022-07-22T03:45:06;11.73;;;10.82;;
12118;SDS011;6123;48.864;9.200;2022-07-22T03:47:33;14.60;;;12.57;;
12118;SDS011;6123;48.864;9.200;2022-07-22T03:49:59;13.65;;;12.35;;
12118;SDS011;6123;48.864;9.200;2022-07-22T03:52:25;13.55;;;12.35;;
12118;SDS011;6123;48.864;9.200;2022-07-22T03:54:53;13.07;;;11.93;;
12118;SDS011;6123;48.864;9.200;2022-07-22T03:57:21;14.13;;;12.82;;
12118;SDS011;6123;48.864;9.200;2022-07-22T03:59:47;13.57;;;12.48;;
12118;SDS011;6123;48.864;9.200;2022-07-22T04:02:15;14.45;;;13.13;;
12118;SDS011;6123;48.864;9.200;2022-07-22T04:04:41;13.05;;;12.02;;
12118;SDS011;6123;48.864;9.200;2022-07-22T04:07:09;13.52;;;12.38;;
12118;SDS011;6123;48.864;9.200;2022-07-22T04:09:39;12.88;;;11.57;;
12118;SDS011;6123;48.864;9.200;2022-07-22T04:12:05;14.18;;;12.88;;
12118;SDS011;6123;48.864;9.200;2022-07-22T04:14:33;14.32;;;13.10;;
12118;SDS011;6123;48.864;9.200;2022-07-22T04:17:01;13.18;;;11.98;;
12118;SDS011;6123;48.864;9.200;2022-07-22T04:19:29;13.45;;;12.15;;
12118;SDS011;6123;48.864;9.200;2022-07-22T04:21:55;12.13;;;11.07;;
12118;SDS011;6123;48.864;9.200;2022-07-22T04:24:20;11.52;;;10.52;;
12118;SDS011;6123;48.864;9.200;2022-07-22T04:26:46;12.07;;;11.10;;
12118;SDS011;6123;48.864;9.200;2022-07-22T04:29:14;12.95;;;11.85;;
12118;SDS011;6123;48.864;9.200;2022-07-22T04:31:40;13.05;;;11.90;;
12118;SDS011;6123;48.864;9.200;2022-07-22T04:34:05;12.20;;;11.13;;
12118;SDS011;6123;48.864;9.200;2022-07-22T04:36:31;10.82;;;10.00;;
12118;SDS011;6123;48.864;9.200;2022-07-22T04:38:57;11.45;;;10.40;;
12118;SDS011;6123;48.864;9.200;2022-07-22T04:41:23;12.45;;;11.45;;
12118;SDS011;6123;48.864;9.200;2022-07-22T04:43:49;12.05;;;10.93;;
12118;SDS011;6123;48.864;9.200;2022-07-22T04:46:14;11.35;;;10.45;;
12118;SDS011;6123;48.864;9.200;2022-07-22T04:48:40;11.18;;;10.27;;
12118;SDS011;6123;48.864;9.200;2022-07-22T04:51:05;11.30;;;10.40;;
12118;SDS011;6123;48.864;9.200;2022-07-22T04:53:31;11.35;;;10.35;;
12118;SDS011;6123;48.864;9.200;2022-07-22T04:55:57;10.85;;;9.85;;
12118;SDS011;6123;48.864;9.200;2022-07-22T04:58:22;11.02;;;10.10;;
12118;SDS011;6123;48.864;9.200;2022-07-22T05:00:48;10.02;;;9.13;;
12118;SDS011;6123;48.864;9.200;2022-07-22T05:03:14;9.60;;;8.70;;
12118;SDS011;6123;48.864;9.200;2022-07-22T05:05:43;9.88;;;9.07;;
12118;SDS011;6123;48.864;9.200;2022-07-22T05:08:11;11.20;;;10.23;;
12118;SDS011;6123;48.864;9.200;2022-07-22T05:10:36;11.60;;;10.43;;
12118;SDS011;6123;48.864;9.200;2022-07-22T05:13:04;11.20;;;10.20;;
12118;SDS011;6123;48.864;9.200;2022-07-22T05:15:32;10.75;;;9.85;;
12118;SDS011;6123;48.864;9.200;2022-07-22T05:17:58;11.52;;;10.52;;
12118;SDS011;6123;48.864;9.200;2022-07-22T05:20:24;10.90;;;9.80;;
12118;SDS011;6123;48.864;9.200;2022-07-22T05:22:50;11.10;;;10.20;;
12118;SDS011;6123;48.864;9.200;2022-07-22T05:25:15;11.25;;;10.30;;
12118;SDS011;6123;48.864;9.200;2022-07-22T05:27:51;11.52;;;10.60;;
12118;SDS011;6123;48.864;9.200;2022-07-22T05:30:18;10.82;;;9.93;;
12118;SDS011;6123;48.864;9.200;2022-07-22T05:32:46;9.65;;;8.75;;
12118;SDS011;6123;48.864;9.200;2022-07-22T05:35:12;10.98;;;10.07;;
12118;SDS011;6123;48.864;9.200;2022-07-22T05:37:37;10.82;;;8.68;;
12118;SDS011;6123;48.864;9.200;2022-07-22T05:40:06;11.05;;;10.05;;
12118;SDS011;6123;48.864;9.200;2022-07-22T05:42:32;9.68;;;8.68;;
12118;SDS011;6123;48.864;9.200;2022-07-22T05:44:58;9.82;;;8.93;;
12118;SDS011;6123;48.864;9.200;2022-07-22T05:47:23;10.63;;;9.82;;
12118;SDS011;6123;48.864;9.200;2022-07-22T05:49:49;10.48;;;9.48;;
12118;SDS011;6123;48.864;9.200;2022-07-22T05:52:17;10.43;;;9.65;;
12118;SDS011;6123;48.864;9.200;2022-07-22T05:54:45;11.68;;;10.68;;
12118;SDS011;6123;48.864;9.200;2022-07-22T05:57:10;10.75;;;9.73;;
12118;SDS011;6123;48.864;9.200;2022-07-22T05:59:36;9.57;;;8.43;;
12118;SDS011;6123;48.864;9.200;2022-07-22T06:02:02;10.40;;;9.50;;
12118;SDS011;6123;48.864;9.200;2022-07-22T06:04:28;8.63;;;7.85;;
12118;SDS011;6123;48.864;9.200;2022-07-22T06:06:54;9.55;;;8.57;;
12118;SDS011;6123;48.864;9.200;2022-07-22T06:09:19;9.98;;;9.18;;
12118;SDS011;6123;48.864;9.200;2022-07-22T06:11:45;9.20;;;8.50;;
12118;SDS011;6123;48.864;9.200;2022-07-22T06:14:11;9.55;;;8.85;;
12118;SDS011;6123;48.864;9.200;2022-07-22T06:16:37;10.40;;;9.60;;
12118;SDS011;6123;48.864;9.200;2022-07-22T06:19:05;9.98;;;9.18;;
12118;SDS011;6123;48.864;9.200;2022-07-22T06:21:33;9.35;;;8.55;;
12118;SDS011;6123;48.864;9.200;2022-07-22T06:23:59;8.48;;;7.70;;
12118;SDS011;6123;48.864;9.200;2022-07-22T06:26:24;9.60;;;8.70;;
12118;SDS011;6123;48.864;9.200;2022-07-22T06:28:50;10.52;;;9.68;;
12118;SDS011;6123;48.864;9.200;2022-07-22T06:31:15;9.27;;;8.45;;
12118;SDS011;6123;48.864;9.200;2022-07-22T06:33:43;10.63;;;9.73;;
12118;SDS011;6123;48.864;9.200;2022-07-22T06:36:09;9.85;;;9.15;;
12118;SDS011;6123;48.864;9.200;2022-07-22T06:38:35;9.77;;;8.95;;
12118;SDS011;6123;48.864;9.200;2022-07-22T06:41:00;10.15;;;9.35;;
12118;SDS011;6123;48.864;9.200;2022-07-22T06:43:27;10.30;;;9.43;;
12118;SDS011;6123;48.864;9.200;2022-07-22T06:45:53;11.98;;;10.98;;
12118;SDS011;6123;48.864;9.200;2022-07-22T06:48:20;10.93;;;9.88;;
12118;SDS011;6123;48.864;9.200;2022-07-22T06:50:47;11.10;;;9.98;;
12118;SDS011;6123;48.864;9.200;2022-07-22T06:53:15;10.20;;;9.40;;
12118;SDS011;6123;48.864;9.200;2022-07-22T06:55:41;8.23;;;7.50;;
12118;SDS011;6123;48.864;9.200;2022-07-22T06:58:07;9.20;;;8.50;;
12118;SDS011;6123;48.864;9.200;2022-07-22T07:00:32;9.77;;;8.85;;
12118;SDS011;6123;48.864;9.200;2022-07-22T07:02:58;9.02;;;8.23;;
12118;SDS011;6123;48.864;9.200;2022-07-22T07:05:25;10.52;;;9.70;;
12118;SDS011;6123;48.864;9.200;2022-07-22T07:07:54;10.05;;;9.20;;
12118;SDS011;6123;48.864;9.200;2022-07-22T07:10:21;10.15;;;9.25;;
12118;SDS011;6123;48.864;9.200;2022-07-22T07:12:47;9.18;;;8.40;;
12118;SDS011;6123;48.864;9.200;2022-07-22T07:15:12;10.60;;;9.75;;
12118;SDS011;6123;48.864;9.200;2022-07-22T07:17:38;9.05;;;8.35;;
12118;SDS011;6123;48.864;9.200;2022-07-22T07:20:04;10.10;;;8.85;;
12118;SDS011;6123;48.864;9.200;2022-07-22T07:22:32;10.93;;;9.98;;
12118;SDS011;6123;48.864;9.200;2022-07-22T07:25:05;10.25;;;9.00;;
12118;SDS011;6123;48.864;9.200;2022-07-22T07:27:32;10.38;;;9.40;;
12118;SDS011;6123;48.864;9.200;2022-07-22T07:29:57;10.63;;;9.15;;
12118;SDS011;6123;48.864;9.200;2022-07-22T07:32:23;10.30;;;9.30;;
12118;SDS011;6123;48.864;9.200;2022-07-22T07:34:53;12.30;;;11.20;;
12118;SDS011;6123;48.864;9.200;2022-07-22T07:37:21;11.23;;;10.13;;
12118;SDS011;6123;48.864;9.200;2022-07-22T07:39:49;11.45;;;10.50;;
12118;SDS011;6123;48.864;9.200;2022-07-22T07:42:17;11.60;;;10.50;;
12118;SDS011;6123;48.864;9.200;2022-07-22T07:44:43;12.13;;;10.90;;
12118;SDS011;6123;48.864;9.200;2022-07-22T07:47:08;11.77;;;10.77;;
12118;SDS011;6123;48.864;9.200;2022-07-22T07:49:34;14.57;;;12.10;;
12118;SDS011;6123;48.864;9.200;2022-07-22T07:52:00;11.15;;;10.25;;
12118;SDS011;6123;48.864;9.200;2022-07-22T07:54:28;12.48;;;11.48;;
12118;SDS011;6123;48.864;9.200;2022-07-22T07:56:54;11.98;;;11.07;;
12118;SDS011;6123;48.864;9.200;2022-07-22T07:59:19;11.45;;;10.40;;
12118;SDS011;6123;48.864;9.200;2022-07-22T08:01:45;12.25;;;11.05;;
12118;SDS011;6123;48.864;9.200;2022-07-22T08:04:13;13.07;;;11.88;;
12118;SDS011;6123;48.864;9.200;2022-07-22T08:06:41;12.05;;;11.05;;
12118;SDS011;6123;48.864;9.200;2022-07-22T08:09:07;13.20;;;12.10;;
12118;SDS011;6123;48.864;9.200;2022-07-22T08:11:32;12.55;;;11.35;;
12118;SDS011;6123;48.864;9.200;2022-07-22T08:14:00;12.27;;;11.20;;
12118;SDS011;6123;48.864;9.200;2022-07-22T08:16:26;13.70;;;12.70;;
12118;SDS011;6123;48.864;9.200;2022-07-22T08:18:52;12.57;;;11.57;;
12118;SDS011;6123;48.864;9.200;2022-07-22T08:21:17;13.88;;;12.35;;
12118;SDS011;6123;48.864;9.200;2022-07-22T08:23:44;14.25;;;13.00;;
12118;SDS011;6123;48.864;9.200;2022-07-22T08:26:09;12.38;;;11.45;;
12118;SDS011;6123;48.864;9.200;2022-07-22T08:28:37;11.82;;;10.98;;
12118;SDS011;6123;48.864;9.200;2022-07-22T08:31:03;13.07;;;11.88;;
12118;SDS011;6123;48.864;9.200;2022-07-22T08:33:29;11.85;;;10.95;;
12118;SDS011;6123;48.864;9.200;2022-07-22T08:35:54;12.95;;;11.70;;
12118;SDS011;6123;48.864;9.200;2022-07-22T08:38:22;13.43;;;12.32;;
12118;SDS011;6123;48.864;9.200;2022-07-22T08:40:48;12.82;;;11.75;;
12118;SDS011;6123;48.864;9.200;2022-07-22T08:43:14;12.25;;;11.05;;
12118;SDS011;6123;48.864;9.200;2022-07-22T08:45:40;13.77;;;12.50;;
12118;SDS011;6123;48.864;9.200;2022-07-22T08:48:08;11.68;;;10.55;;
12118;SDS011;6123;48.864;9.200;2022-07-22T08:50:34;10.82;;;9.95;;
12118;SDS011;6123;48.864;9.200;2022-07-22T08:52:59;11.20;;;10.20;;
12118;SDS011;6123;48.864;9.200;2022-07-22T08:55:25;10.43;;;9.45;;
12118;SDS011;6123;48.864;9.200;2022-07-22T08:57:51;11.10;;;10.10;;
12118;SDS011;6123;48.864;9.200;2022-07-22T09:00:18;11.05;;;10.20;;
12118;SDS011;6123;48.864;9.200;2022-07-22T09:02:45;10.07;;;9.18;;
12118;SDS011;6123;48.864;9.200;2022-07-22T09:05:11;12.35;;;11.25;;
12118;SDS011;6123;48.864;9.200;2022-07-22T09:07:40;12.10;;;11.02;;
12118;SDS011;6123;48.864;9.200;2022-07-22T09:10:07;12.80;;;11.48;;
12118;SDS011;6123;48.864;9.200;2022-07-22T09:12:53;12.35;;;11.25;;
12118;SDS011;6123;48.864;9.200;2022-07-22T09:15:31;11.52;;;10.48;;
12118;SDS011;6123;48.864;9.200;2022-07-22T09:18:02;10.68;;;9.68;;
12118;SDS011;6123;48.864;9.200;2022-07-22T09:20:28;11.27;;;10.18;;
12118;SDS011;6123;48.864;9.200;2022-07-22T09:22:55;10.75;;;9.75;;
12118;SDS011;6123;48.864;9.200;2022-07-22T09:30:32;9.88;;;8.98;;
12118;SDS011;6123;48.864;9.200;2022-07-22T09:32:59;11.32;;;10.23;;
12118;SDS011;6123;48.864;9.200;2022-07-22T09:35:24;10.25;;;9.45;;
12118;SDS011;6123;48.864;9.200;2022-07-22T09:37:52;10.90;;;9.82;;
12118;SDS011;6123;48.864;9.200;2022-07-22T09:40:20;10.23;;;9.18;;
12118;SDS011;6123;48.864;9.200;2022-07-22T09:42:52;10.05;;;9.18;;
12118;SDS011;6123;48.864;9.200;2022-07-22T09:45:20;10.52;;;9.57;;
12118;SDS011;6123;48.864;9.200;2022-07-22T09:47:49;9.98;;;9.02;;
12118;SDS011;6123;48.864;9.200;2022-07-22T09:52:56;9.70;;;9.02;;
12118;SDS011;6123;48.864;9.200;2022-07-22T09:55:23;10.13;;;9.32;;
12118;SDS011;6123;48.864;9.200;2022-07-22T09:57:53;10.65;;;9.65;;
12118;SDS011;6123;48.864;9.200;2022-07-22T10:00:20;9.40;;;8.48;;
12118;SDS011;6123;48.864;9.200;2022-07-22T10:02:52;9.50;;;8.80;;
12118;SDS011;6123;48.864;9.200;2022-07-22T10:05:19;9.25;;;8.55;;
12118;SDS011;6123;48.864;9.200;2022-07-22T10:07:50;8.88;;;8.27;;
12118;SDS011;6123;48.864;9.200;2022-07-22T10:10:17;8.55;;;7.85;;
12118;SDS011;6123;48.864;9.200;2022-07-22T10:12:54;8.90;;;7.57;;
12118;SDS011;6123;48.864;9.200;2022-07-22T10:15:21;9.50;;;8.60;;
12118;SDS011;6123;48.864;9.200;2022-07-22T10:17:53;8.98;;;8.18;;
12118;SDS011;6123;48.864;9.200;2022-07-22T10:20:25;8.90;;;8.10;;
12118;SDS011;6123;48.864;9.200;2022-07-22T10:22:58;9.90;;;9.02;;
12118;SDS011;6123;48.864;9.200;2022-07-22T10:25:47;8.45;;;7.85;;
12118;SDS011;6123;48.864;9.200;2022-07-22T10:30:50;9.43;;;8.60;;
12118;SDS011;6123;48.864;9.200;2022-07-22T10:33:17;8.75;;;8.00;;
12118;SDS011;6123;48.864;9.200;2022-07-22T10:38:26;8.73;;;7.93;;
12118;SDS011;6123;48.864;9.200;2022-07-22T10:43:18;14.80;;;8.35;;
12118;SDS011;6123;48.864;9.200;2022-07-22T10:45:47;8.18;;;7.32;;
12118;SDS011;6123;48.864;9.200;2022-07-22T10:48:17;8.55;;;7.85;;
12118;SDS011;6123;48.864;9.200;2022-07-22T10:50:49;7.82;;;7.13;;
12118;SDS011;6123;48.864;9.200;2022-07-22T10:56:00;8.57;;;7.95;;
12118;SDS011;6123;48.864;9.200;2022-07-22T10:58:46;8.13;;;7.53;;
12118;SDS011;6123;48.864;9.200;2022-07-22T11:01:13;8.77;;;7.97;;
12118;SDS011;6123;48.864;9.200;2022-07-22T11:03:41;8.85;;;7.97;;
12118;SDS011;6123;48.864;9.200;2022-07-22T11:08:44;9.13;;;8.32;;
12118;SDS011;6123;48.864;9.200;2022-07-22T11:11:13;9.02;;;8.32;;
12118;SDS011;6123;48.864;9.200;2022-07-22T11:13:39;8.65;;;7.88;;
12118;SDS011;6123;48.864;9.200;2022-07-22T11:18:47;8.02;;;7.38;;
12118;SDS011;6123;48.864;9.200;2022-07-22T11:21:24;7.68;;;6.97;;
12118;SDS011;6123;48.864;9.200;2022-07-22T11:23:51;7.97;;;7.22;;
12118;SDS011;6123;48.864;9.200;2022-07-22T11:26:43;8.25;;;7.63;;
12118;SDS011;6123;48.864;9.200;2022-07-22T11:29:10;7.82;;;7.13;;
12118;SDS011;6123;48.864;9.200;2022-07-22T11:31:41;9.10;;;8.45;;
12118;SDS011;6123;48.864;9.200;2022-07-22T11:34:11;8.23;;;7.63;;
12118;SDS011;6123;48.864;9.200;2022-07-22T11:36:41;7.72;;;7.07;;
12118;SDS011;6123;48.864;9.200;2022-07-22T11:39:11;6.82;;;6.30;;
12118;SDS011;6123;48.864;9.200;2022-07-22T11:41:40;8.05;;;7.25;;
12118;SDS011;6123;48.864;9.200;2022-07-22T11:44:06;8.35;;;7.55;;
12118;SDS011;6123;48.864;9.200;2022-07-22T11:46:36;7.80;;;7.20;;
12118;SDS011;6123;48.864;9.200;2022-07-22T11:49:06;7.30;;;6.70;;
12118;SDS011;6123;48.864;9.200;2022-07-22T11:51:38;7.88;;;7.15;;
12118;SDS011;6123;48.864;9.200;2022-07-22T11:54:04;7.88;;;6.95;;
12118;SDS011;6123;48.864;9.200;2022-07-22T11:56:30;7.78;;;7.07;;
12118;SDS011;6123;48.864;9.200;2022-07-22T11:58:57;8.82;;;7.93;;
12118;SDS011;6123;48.864;9.200;2022-07-22T12:01:24;7.32;;;6.82;;
12118;SDS011;6123;48.864;9.200;2022-07-22T12:03:54;7.82;;;7.13;;
12118;SDS011;6123;48.864;9.200;2022-07-22T12:06:25;6.90;;;6.35;;
12118;SDS011;6123;48.864;9.200;2022-07-22T12:08:53;6.57;;;6.18;;
12118;SDS011;6123;48.864;9.200;2022-07-22T12:11:20;7.95;;;6.32;;
12118;SDS011;6123;48.864;9.200;2022-07-22T12:13:50;7.03;;;6.43;;
12118;SDS011;6123;48.864;9.200;2022-07-22T12:16:18;6.68;;;6.22;;
12118;SDS011;6123;48.864;9.200;2022-07-22T12:18:52;6.88;;;6.20;;
12118;SDS011;6123;48.864;9.200;2022-07-22T12:21:26;7.50;;;6.68;;
12118;SDS011;6123;48.864;9.200;2022-07-22T12:23:55;6.90;;;6.40;;
12118;SDS011;6123;48.864;9.200;2022-07-22T12:29:18;6.65;;;6.15;;
12118;SDS011;6123;48.864;9.200;2022-07-22T12:31:46;6.50;;;5.90;;
12118;SDS011;6123;48.864;9.200;2022-07-22T12:34:14;6.35;;;5.95;;
12118;SDS011;6123;48.864;9.200;2022-07-22T12:36:43;6.70;;;6.20;;
12118;SDS011;6123;48.864;9.200;2022-07-22T12:39:16;6.70;;;6.00;;
12118;SDS011;6123;48.864;9.200;2022-07-22T12:41:47;6.68;;;6.18;;
12118;SDS011;6123;48.864;9.200;2022-07-22T12:44:18;6.65;;;6.13;;
12118;SDS011;6123;48.864;9.200;2022-07-22T12:46:49;6.78;;;6.28;;
12118;SDS011;6123;48.864;9.200;2022-07-22T12:49:18;6.90;;;6.25;;
12118;SDS011;6123;48.864;9.200;2022-07-22T12:54:49;6.93;;;6.20;;
12118;SDS011;6123;48.864;9.200;2022-07-22T12:57:17;6.68;;;6.18;;
12118;SDS011;6123;48.864;9.200;2022-07-22T12:59:51;6.55;;;6.15;;
12118;SDS011;6123;48.864;9.200;2022-07-22T13:02:17;6.50;;;6.00;;
12118;SDS011;6123;48.864;9.200;2022-07-22T13:04:43;6.32;;;5.93;;
12118;SDS011;6123;48.864;9.200;2022-07-22T13:07:08;6.45;;;6.05;;
12118;SDS011;6123;48.864;9.200;2022-07-22T13:09:34;7.15;;;6.15;;
12118;SDS011;6123;48.864;9.200;2022-07-22T13:12:02;6.35;;;5.95;;
12118;SDS011;6123;48.864;9.200;2022-07-22T13:14:27;7.43;;;6.13;;
12118;SDS011;6123;48.864;9.200;2022-07-22T13:16:53;6.18;;;5.68;;
12118;SDS011;6123;48.864;9.200;2022-07-22T13:19:19;6.30;;;5.82;;
12118;SDS011;6123;48.864;9.200;2022-07-22T13:21:44;6.88;;;5.95;;
12118;SDS011;6123;48.864;9.200;2022-07-22T13:24:10;6.18;;;5.72;;
12118;SDS011;6123;48.864;9.200;2022-07-22T13:26:39;6.75;;;6.18;;
12118;SDS011;6123;48.864;9.200;2022-07-22T13:29:05;6.40;;;5.93;;
12118;SDS011;6123;48.864;9.200;2022-07-22T13:31:33;5.60;;;5.20;;
12118;SDS011;6123;48.864;9.200;2022-07-22T13:33:58;5.82;;;5.43;;
12118;SDS011;6123;48.864;9.200;2022-07-22T13:36:24;6.40;;;5.88;;
12118;SDS011;6123;48.864;9.200;2022-07-22T13:38:53;6.53;;;5.95;;
12118;SDS011;6123;48.864;9.200;2022-07-22T13:41:19;6.13;;;5.63;;
12118;SDS011;6123;48.864;9.200;2022-07-22T13:43:44;5.65;;;5.28;;
12118;SDS011;6123;48.864;9.200;2022-07-22T13:46:10;6.32;;;5.90;;
12118;SDS011;6123;48.864;9.200;2022-07-22T13:48:36;6.28;;;5.78;;
12118;SDS011;6123;48.864;9.200;2022-07-22T13:51:02;5.70;;;5.30;;
12118;SDS011;6123;48.864;9.200;2022-07-22T13:53:30;6.00;;;5.50;;
12118;SDS011;6123;48.864;9.200;2022-07-22T13:55:56;6.18;;;5.68;;
12118;SDS011;6123;48.864;9.200;2022-07-22T13:58:21;6.97;;;5.78;;
12118;SDS011;6123;48.864;9.200;2022-07-22T14:00:47;5.65;;;5.25;;
12118;SDS011;6123;48.864;9.200;2022-07-22T14:03:13;6.30;;;5.70;;
12118;SDS011;6123;48.864;9.200;2022-07-22T14:05:38;5.78;;;5.38;;
12118;SDS011;6123;48.864;9.200;2022-07-22T14:08:06;5.88;;;5.38;;
12118;SDS011;6123;48.864;9.200;2022-07-22T14:10:32;5.55;;;5.15;;
12118;SDS011;6123;48.864;9.200;2022-07-22T14:12:57;6.20;;;5.80;;
12118;SDS011;6123;48.864;9.200;2022-07-22T14:15:23;5.82;;;5.30;;
12118;SDS011;6123;48.864;9.200;2022-07-22T14:17:49;6.10;;;5.70;;
12118;SDS011;6123;48.864;9.200;2022-07-22T14:20:19;5.57;;;5.18;;
12118;SDS011;6123;48.864;9.200;2022-07-22T14:22:45;6.57;;;6.07;;
12118;SDS011;6123;48.864;9.200;2022-07-22T14:25:13;7.47;;;6.00;;
12118;SDS011;6123;48.864;9.200;2022-07-22T14:27:41;5.93;;;5.53;;
12118;SDS011;6123;48.864;9.200;2022-07-22T14:30:10;5.68;;;5.20;;
12118;SDS011;6123;48.864;9.200;2022-07-22T14:32:37;6.20;;;5.70;;
12118;SDS011;6123;48.864;9.200;2022-07-22T14:35:02;5.85;;;5.50;;
12118;SDS011;6123;48.864;9.200;2022-07-22T14:37:30;5.95;;;5.38;;
12118;SDS011;6123;48.864;9.200;2022-07-22T14:39:56;5.55;;;5.15;;
12118;SDS011;6123;48.864;9.200;2022-07-22T14:42:25;5.75;;;5.32;;
12118;SDS011;6123;48.864;9.200;2022-07-22T14:44:50;6.38;;;5.88;;
12118;SDS011;6123;48.864;9.200;2022-07-22T14:47:16;6.50;;;5.85;;
12118;SDS011;6123;48.864;9.200;2022-07-22T14:49:42;6.97;;;6.47;;
12118;SDS011;6123;48.864;9.200;2022-07-22T14:52:07;6.32;;;5.80;;
12118;SDS011;6123;48.864;9.200;2022-07-22T14:54:35;6.70;;;6.20;;
12118;SDS011;6123;48.864;9.200;2022-07-22T14:57:04;5.72;;;5.32;;
12118;SDS011;6123;48.864;9.200;2022-07-22T14:59:30;6.32;;;5.93;;
12118;SDS011;6123;48.864;9.200;2022-07-22T15:01:56;6.13;;;5.63;;
12118;SDS011;6123;48.864;9.200;2022-07-22T15:04:21;6.40;;;6.00;;
12118;SDS011;6123;48.864;9.200;2022-07-22T15:06:47;5.70;;;5.18;;
12118;SDS011;6123;48.864;9.200;2022-07-22T15:09:15;6.45;;;5.95;;
12118;SDS011;6123;48.864;9.200;2022-07-22T15:11:41;8.27;;;6.05;;
12118;SDS011;6123;48.864;9.200;2022-07-22T15:14:09;5.63;;;5.22;;
12118;SDS011;6123;48.864;9.200;2022-07-22T15:16:35;6.30;;;5.70;;
12118;SDS011;6123;48.864;9.200;2022-07-22T15:19:00;5.75;;;5.30;;